LGAVLGAL

Guest
Details From LGAV - Athens Intl Airport Elefterios Venizel
To LGAL - Alexandroupolis Dimokritos
Flight Number -
Tags decoded
Created
Modified
Stats Distance 207 nm / 384 km
Max Altitude 0 ft / 0 m
Waypoints 6
Social Downloads 4
Likes 0
Share

Download

Looking for another format? Having issues loading an existing format? Contact us
Advertisement - Login to hide

Notes

Requested: LGAV NEVRA UG33 LMO LGAL

Route

LGAV NEVRA UG33 LMO LGAL

ID Type Via Altitude (ft/m) Position (lat/lon) Dist (leg/tot) Name
O LGAV APT - 0 / 0 37.93636 / 23.94447 - / 0 nm Athens Intl Airport Elefterios Venizel
NEVRA FIX - 0 / 0 38.16833 / 24.56028 32 / 32 nm
KOROS FIX UG33 (AWY-HI) 0 / 0 39.09972 / 24.91583 58 / 90 nm
LUPIS FIX UG33 (AWY-HI) 0 / 0 39.21056 / 24.95889 6 / 97 nm
LMO VOR UG33 (AWY-HI) 0 / 0 39.91954 / 25.23719 44 / 142 nm LIMNOS VOR-DME
O LGAL APT - 0 / 0 40.85587 / 25.95626 65 / 207 nm Alexandroupolis Dimokritos

Altitude Profile

Advertisement - Login to hide

Weather


0- 5 10 15 20 25 30 35+ Temperature / °C

Clouds and Precipitation
Forecast for 2022-05-20 00:00 UTC. Updated 7 hours ago

Ground ~20,000 ft ~40,000 ft Winds

LGAV

Details ICAO LGAV (ATH)
Name Athens Eleftherios Venizelos
Region Greece
Timezone Europe/Athens (UTC+3.0)
Stats Elevation 308 ft / 94 m (AMSL)
Location 37.936700° 23.944500°
Runways 2
Magnetic Variation 4.915° E

METAR

LGAV 200420Z 35012KT CAVOK 17/05 Q1023 NOSIG

Decode

TAF

TAF TAF LGAV 192300Z 2000/2024 02015KT 9999 FEW030 TEMPO 2000/2006 02016G26KT BECMG 2006/2008 03025G38KT BECMG 2015/2017 02015KT

Decode

Departure Runways

ID Width Length Bearing (true/mag) Surface Threshold Overrun Markings Lighting
03L 151 ft / 46 m 12,478 ft / 3,803 m 36.86° / 31.94° ASPHALT 984 ft / 300 m 394 ft / 120 m PREC-APP CENTERLINE EDGE THRESHOLD ALSF-II TDZ REIL-OMNI
03R 151 ft / 46 m 13,135 ft / 4,004 m 36.87° / 31.96° ASPHALT 984 ft / 300 m 394 ft / 120 m PREC-APP CENTERLINE EDGE THRESHOLD ALSF-II TDZ REIL-OMNI
21L 151 ft / 46 m 13,135 ft / 4,004 m 216.89° / 211.97° ASPHALT 984 ft / 300 m 394 ft / 120 m PREC-APP CENTERLINE EDGE THRESHOLD ALSF-II TDZ REIL-OMNI
21R 151 ft / 46 m 12,478 ft / 3,803 m 216.87° / 211.96° ASPHALT 984 ft / 300 m 394 ft / 120 m PREC-APP CENTERLINE EDGE THRESHOLD ALSF-II TDZ REIL-OMNI

LGAL

Details ICAO LGAL (AXD)
Name Alexandroupolis Dimokritos
Region Greece
Timezone Europe/Athens (UTC+3.0)
Stats Elevation 23 ft / 7 m (AMSL)
Location 40.855800° 25.956100°
Runways 1
Magnetic Variation 5.508° E

METAR

LGAL 200420Z 09003KT 9999 FEW025 10/06 Q1026

Decode

TAF

Not found

Destination Runways

ID Width Length Bearing (true/mag) Surface Threshold Overrun Markings Lighting
07 148 ft / 45 m 8,540 ft / 2,603 m 72.84° / 67.33° ASPHALT 0 ft / 0 m 0 ft / 0 m APP CENTERLINE EDGE THRESHOLD MALSF
25 148 ft / 45 m 8,540 ft / 2,603 m 252.86° / 247.35° ASPHALT 0 ft / 0 m 0 ft / 0 m APP CENTERLINE EDGE THRESHOLD MALSF

Popular Alternatives